sensor_id;sensor_type;location;lat;lon;timestamp;P1;durP1;ratioP1;P2;durP2;ratioP2
73359;SDS011;63092;43.582;19.528;2023-06-26T00:02:17;35.63;;;24.00;;
73359;SDS011;63092;43.582;19.528;2023-06-26T00:04:43;35.47;;;24.05;;
73359;SDS011;63092;43.582;19.528;2023-06-26T00:07:09;34.00;;;24.77;;
73359;SDS011;63092;43.582;19.528;2023-06-26T00:09:36;34.15;;;23.55;;
73359;SDS011;63092;43.582;19.528;2023-06-26T00:12:02;35.33;;;23.67;;
73359;SDS011;63092;43.582;19.528;2023-06-26T00:14:27;33.80;;;23.65;;
73359;SDS011;63092;43.582;19.528;2023-06-26T00:16:54;33.70;;;24.02;;
73359;SDS011;63092;43.582;19.528;2023-06-26T00:19:20;33.30;;;23.65;;
73359;SDS011;63092;43.582;19.528;2023-06-26T00:21:46;33.22;;;23.52;;
73359;SDS011;63092;43.582;19.528;2023-06-26T00:24:16;37.25;;;23.27;;
73359;SDS011;63092;43.582;19.528;2023-06-26T00:26:43;34.30;;;22.83;;
73359;SDS011;63092;43.582;19.528;2023-06-26T00:29:11;32.10;;;22.05;;
73359;SDS011;63092;43.582;19.528;2023-06-26T00:31:37;34.20;;;22.63;;
73359;SDS011;63092;43.582;19.528;2023-06-26T00:34:05;34.88;;;22.73;;
73359;SDS011;63092;43.582;19.528;2023-06-26T00:36:30;34.85;;;22.58;;
73359;SDS011;63092;43.582;19.528;2023-06-26T00:38:56;31.52;;;22.45;;
73359;SDS011;63092;43.582;19.528;2023-06-26T00:41:22;32.38;;;22.05;;
73359;SDS011;63092;43.582;19.528;2023-06-26T00:43:48;31.65;;;22.42;;
73359;SDS011;63092;43.582;19.528;2023-06-26T00:46:14;32.22;;;22.10;;
73359;SDS011;63092;43.582;19.528;2023-06-26T00:48:41;29.67;;;21.35;;
73359;SDS011;63092;43.582;19.528;2023-06-26T00:51:08;31.98;;;21.98;;
73359;SDS011;63092;43.582;19.528;2023-06-26T00:53:35;30.42;;;21.42;;
73359;SDS011;63092;43.582;19.528;2023-06-26T00:56:04;32.67;;;23.83;;
73359;SDS011;63092;43.582;19.528;2023-06-26T00:58:31;34.00;;;23.60;;
73359;SDS011;63092;43.582;19.528;2023-06-26T01:00:57;38.80;;;24.73;;
73359;SDS011;63092;43.582;19.528;2023-06-26T01:03:23;35.42;;;24.42;;
73359;SDS011;63092;43.582;19.528;2023-06-26T01:05:51;38.53;;;24.98;;
73359;SDS011;63092;43.582;19.528;2023-06-26T01:08:18;36.92;;;25.30;;
73359;SDS011;63092;43.582;19.528;2023-06-26T01:10:45;37.20;;;24.90;;
73359;SDS011;63092;43.582;19.528;2023-06-26T01:13:12;37.58;;;25.13;;
73359;SDS011;63092;43.582;19.528;2023-06-26T01:15:39;38.25;;;25.45;;
73359;SDS011;63092;43.582;19.528;2023-06-26T01:18:05;39.60;;;24.92;;
73359;SDS011;63092;43.582;19.528;2023-06-26T01:20:31;35.17;;;23.60;;
73359;SDS011;63092;43.582;19.528;2023-06-26T01:23:12;39.67;;;25.33;;
73359;SDS011;63092;43.582;19.528;2023-06-26T01:28:27;37.25;;;25.00;;
73359;SDS011;63092;43.582;19.528;2023-06-26T01:30:54;39.50;;;25.52;;
73359;SDS011;63092;43.582;19.528;2023-06-26T01:33:20;34.22;;;24.23;;
73359;SDS011;63092;43.582;19.528;2023-06-26T01:35:47;35.97;;;24.42;;
73359;SDS011;63092;43.582;19.528;2023-06-26T01:38:14;36.47;;;25.38;;
73359;SDS011;63092;43.582;19.528;2023-06-26T01:40:42;37.30;;;24.50;;
73359;SDS011;63092;43.582;19.528;2023-06-26T01:43:46;38.40;;;25.08;;
73359;SDS011;63092;43.582;19.528;2023-06-26T01:52:07;37.35;;;24.88;;
73359;SDS011;63092;43.582;19.528;2023-06-26T01:54:36;37.67;;;25.23;;
73359;SDS011;63092;43.582;19.528;2023-06-26T01:57:06;36.70;;;25.23;;
73359;SDS011;63092;43.582;19.528;2023-06-26T01:59:34;37.50;;;25.08;;
73359;SDS011;63092;43.582;19.528;2023-06-26T02:02:02;36.20;;;24.23;;
73359;SDS011;63092;43.582;19.528;2023-06-26T02:04:28;36.40;;;23.75;;
73359;SDS011;63092;43.582;19.528;2023-06-26T02:06:53;36.85;;;23.92;;
73359;SDS011;63092;43.582;19.528;2023-06-26T02:09:20;36.05;;;24.10;;
73359;SDS011;63092;43.582;19.528;2023-06-26T02:11:45;39.22;;;24.08;;
73359;SDS011;63092;43.582;19.528;2023-06-26T02:14:11;35.72;;;24.48;;
73359;SDS011;63092;43.582;19.528;2023-06-26T02:16:37;34.53;;;23.67;;
73359;SDS011;63092;43.582;19.528;2023-06-26T02:19:03;38.67;;;24.52;;
73359;SDS011;63092;43.582;19.528;2023-06-26T02:21:28;36.33;;;23.80;;
73359;SDS011;63092;43.582;19.528;2023-06-26T02:23:54;35.03;;;23.27;;
73359;SDS011;63092;43.582;19.528;2023-06-26T02:26:20;38.47;;;25.00;;
73359;SDS011;63092;43.582;19.528;2023-06-26T02:28:45;38.00;;;25.48;;
73359;SDS011;63092;43.582;19.528;2023-06-26T02:31:11;36.38;;;24.20;;
73359;SDS011;63092;43.582;19.528;2023-06-26T02:33:37;36.13;;;23.65;;
73359;SDS011;63092;43.582;19.528;2023-06-26T02:36:03;36.97;;;23.75;;
73359;SDS011;63092;43.582;19.528;2023-06-26T02:38:29;36.95;;;22.88;;
73359;SDS011;63092;43.582;19.528;2023-06-26T02:40:55;36.88;;;23.45;;
73359;SDS011;63092;43.582;19.528;2023-06-26T02:43:21;37.05;;;23.85;;
73359;SDS011;63092;43.582;19.528;2023-06-26T02:45:46;36.70;;;23.50;;
73359;SDS011;63092;43.582;19.528;2023-06-26T02:48:12;36.50;;;23.65;;
73359;SDS011;63092;43.582;19.528;2023-06-26T02:50:38;35.22;;;22.80;;
73359;SDS011;63092;43.582;19.528;2023-06-26T02:53:03;36.85;;;23.52;;
73359;SDS011;63092;43.582;19.528;2023-06-26T02:55:29;36.38;;;22.90;;
73359;SDS011;63092;43.582;19.528;2023-06-26T02:57:55;36.22;;;22.83;;
73359;SDS011;63092;43.582;19.528;2023-06-26T03:00:21;36.78;;;23.08;;
73359;SDS011;63092;43.582;19.528;2023-06-26T03:02:46;33.42;;;22.23;;
73359;SDS011;63092;43.582;19.528;2023-06-26T03:05:12;35.10;;;23.02;;
73359;SDS011;63092;43.582;19.528;2023-06-26T03:07:38;33.65;;;22.23;;
73359;SDS011;63092;43.582;19.528;2023-06-26T03:10:04;33.55;;;23.08;;
73359;SDS011;63092;43.582;19.528;2023-06-26T03:12:30;36.75;;;22.17;;
73359;SDS011;63092;43.582;19.528;2023-06-26T03:14:56;37.70;;;23.30;;
73359;SDS011;63092;43.582;19.528;2023-06-26T03:17:22;38.10;;;23.23;;
73359;SDS011;63092;43.582;19.528;2023-06-26T03:19:47;33.20;;;23.17;;
73359;SDS011;63092;43.582;19.528;2023-06-26T03:22:13;33.40;;;22.55;;
73359;SDS011;63092;43.582;19.528;2023-06-26T03:24:39;34.20;;;23.33;;
73359;SDS011;63092;43.582;19.528;2023-06-26T03:27:04;38.88;;;24.08;;
73359;SDS011;63092;43.582;19.528;2023-06-26T03:29:30;39.35;;;23.45;;
73359;SDS011;63092;43.582;19.528;2023-06-26T03:31:56;33.65;;;22.85;;
73359;SDS011;63092;43.582;19.528;2023-06-26T03:34:22;35.90;;;23.20;;
73359;SDS011;63092;43.582;19.528;2023-06-26T03:36:47;34.17;;;23.30;;
73359;SDS011;63092;43.582;19.528;2023-06-26T03:39:13;35.72;;;23.27;;
73359;SDS011;63092;43.582;19.528;2023-06-26T03:41:39;42.30;;;24.40;;
73359;SDS011;63092;43.582;19.528;2023-06-26T03:44:04;35.65;;;23.95;;
73359;SDS011;63092;43.582;19.528;2023-06-26T03:46:30;33.05;;;21.52;;
73359;SDS011;63092;43.582;19.528;2023-06-26T03:48:56;32.33;;;22.40;;
73359;SDS011;63092;43.582;19.528;2023-06-26T03:51:22;35.35;;;22.42;;
73359;SDS011;63092;43.582;19.528;2023-06-26T03:53:47;33.33;;;22.52;;
73359;SDS011;63092;43.582;19.528;2023-06-26T03:56:13;35.20;;;22.02;;
73359;SDS011;63092;43.582;19.528;2023-06-26T03:58:39;37.08;;;22.90;;
73359;SDS011;63092;43.582;19.528;2023-06-26T04:01:04;33.72;;;22.75;;
73359;SDS011;63092;43.582;19.528;2023-06-26T04:03:30;34.55;;;22.40;;
73359;SDS011;63092;43.582;19.528;2023-06-26T04:05:56;34.85;;;22.05;;
73359;SDS011;63092;43.582;19.528;2023-06-26T04:08:23;31.33;;;21.90;;
73359;SDS011;63092;43.582;19.528;2023-06-26T04:13:17;34.88;;;22.98;;
73359;SDS011;63092;43.582;19.528;2023-06-26T04:15:43;36.03;;;22.98;;
73359;SDS011;63092;43.582;19.528;2023-06-26T04:18:08;37.63;;;23.77;;
73359;SDS011;63092;43.582;19.528;2023-06-26T04:20:38;34.28;;;21.95;;
73359;SDS011;63092;43.582;19.528;2023-06-26T04:23:06;36.75;;;21.92;;
73359;SDS011;63092;43.582;19.528;2023-06-26T04:25:31;33.67;;;22.45;;
73359;SDS011;63092;43.582;19.528;2023-06-26T04:27:58;33.17;;;21.58;;
73359;SDS011;63092;43.582;19.528;2023-06-26T04:30:23;36.85;;;22.63;;
73359;SDS011;63092;43.582;19.528;2023-06-26T04:32:49;34.83;;;21.98;;
73359;SDS011;63092;43.582;19.528;2023-06-26T04:35:15;37.33;;;22.42;;
73359;SDS011;63092;43.582;19.528;2023-06-26T04:37:40;37.97;;;24.52;;
73359;SDS011;63092;43.582;19.528;2023-06-26T04:40:06;36.05;;;23.90;;
73359;SDS011;63092;43.582;19.528;2023-06-26T04:42:34;37.72;;;24.50;;
73359;SDS011;63092;43.582;19.528;2023-06-26T04:45:00;34.28;;;22.67;;
73359;SDS011;63092;43.582;19.528;2023-06-26T04:47:27;33.58;;;22.35;;
73359;SDS011;63092;43.582;19.528;2023-06-26T04:49:53;34.63;;;21.88;;
73359;SDS011;63092;43.582;19.528;2023-06-26T04:52:20;34.60;;;24.38;;
73359;SDS011;63092;43.582;19.528;2023-06-26T04:54:45;38.45;;;26.83;;
73359;SDS011;63092;43.582;19.528;2023-06-26T04:57:11;40.80;;;27.75;;
73359;SDS011;63092;43.582;19.528;2023-06-26T04:59:37;33.47;;;22.55;;
73359;SDS011;63092;43.582;19.528;2023-06-26T05:02:03;36.22;;;24.73;;
73359;SDS011;63092;43.582;19.528;2023-06-26T05:04:29;36.70;;;25.50;;
73359;SDS011;63092;43.582;19.528;2023-06-26T05:06:55;32.20;;;22.08;;
73359;SDS011;63092;43.582;19.528;2023-06-26T05:09:21;32.25;;;21.35;;
73359;SDS011;63092;43.582;19.528;2023-06-26T05:11:47;39.38;;;23.05;;
73359;SDS011;63092;43.582;19.528;2023-06-26T05:14:12;36.38;;;23.27;;
73359;SDS011;63092;43.582;19.528;2023-06-26T05:16:38;33.97;;;21.30;;
73359;SDS011;63092;43.582;19.528;2023-06-26T05:19:04;33.75;;;20.55;;
73359;SDS011;63092;43.582;19.528;2023-06-26T05:21:30;31.70;;;21.58;;
73359;SDS011;63092;43.582;19.528;2023-06-26T05:23:56;29.70;;;20.45;;
73359;SDS011;63092;43.582;19.528;2023-06-26T05:26:23;33.05;;;20.77;;
73359;SDS011;63092;43.582;19.528;2023-06-26T05:28:49;30.23;;;19.60;;
73359;SDS011;63092;43.582;19.528;2023-06-26T05:31:15;30.73;;;20.63;;
73359;SDS011;63092;43.582;19.528;2023-06-26T05:33:43;31.70;;;21.35;;
73359;SDS011;63092;43.582;19.528;2023-06-26T05:36:12;28.40;;;19.02;;
73359;SDS011;63092;43.582;19.528;2023-06-26T05:38:39;29.70;;;19.02;;
73359;SDS011;63092;43.582;19.528;2023-06-26T05:41:05;31.08;;;19.60;;
73359;SDS011;63092;43.582;19.528;2023-06-26T05:43:31;27.35;;;18.13;;
73359;SDS011;63092;43.582;19.528;2023-06-26T05:45:56;28.55;;;18.55;;
73359;SDS011;63092;43.582;19.528;2023-06-26T05:48:23;26.85;;;18.88;;
73359;SDS011;63092;43.582;19.528;2023-06-26T05:50:49;27.50;;;18.60;;
73359;SDS011;63092;43.582;19.528;2023-06-26T05:53:15;27.40;;;18.38;;
73359;SDS011;63092;43.582;19.528;2023-06-26T05:55:41;25.23;;;16.80;;
73359;SDS011;63092;43.582;19.528;2023-06-26T05:58:07;25.67;;;17.67;;
73359;SDS011;63092;43.582;19.528;2023-06-26T06:00:35;25.70;;;17.90;;
73359;SDS011;63092;43.582;19.528;2023-06-26T06:03:01;25.33;;;17.40;;
73359;SDS011;63092;43.582;19.528;2023-06-26T06:05:27;24.30;;;16.73;;
73359;SDS011;63092;43.582;19.528;2023-06-26T06:07:53;29.83;;;17.48;;
73359;SDS011;63092;43.582;19.528;2023-06-26T06:10:19;25.60;;;17.25;;
73359;SDS011;63092;43.582;19.528;2023-06-26T06:12:45;24.52;;;17.58;;
73359;SDS011;63092;43.582;19.528;2023-06-26T06:15:10;24.55;;;16.48;;
73359;SDS011;63092;43.582;19.528;2023-06-26T06:17:36;24.65;;;17.20;;
73359;SDS011;63092;43.582;19.528;2023-06-26T06:20:02;25.50;;;16.77;;
73359;SDS011;63092;43.582;19.528;2023-06-26T06:22:28;23.83;;;16.25;;
73359;SDS011;63092;43.582;19.528;2023-06-26T06:24:54;24.20;;;17.50;;
73359;SDS011;63092;43.582;19.528;2023-06-26T06:27:20;24.67;;;16.95;;
73359;SDS011;63092;43.582;19.528;2023-06-26T06:29:45;24.75;;;16.85;;
73359;SDS011;63092;43.582;19.528;2023-06-26T06:32:11;22.90;;;16.58;;
73359;SDS011;63092;43.582;19.528;2023-06-26T06:34:37;24.23;;;16.48;;
73359;SDS011;63092;43.582;19.528;2023-06-26T06:37:03;22.45;;;15.52;;
73359;SDS011;63092;43.582;19.528;2023-06-26T06:39:29;23.17;;;15.70;;
73359;SDS011;63092;43.582;19.528;2023-06-26T06:41:55;23.80;;;15.27;;
73359;SDS011;63092;43.582;19.528;2023-06-26T06:44:21;24.83;;;16.90;;
73359;SDS011;63092;43.582;19.528;2023-06-26T06:46:47;31.15;;;20.67;;
73359;SDS011;63092;43.582;19.528;2023-06-26T06:49:13;28.80;;;17.30;;
73359;SDS011;63092;43.582;19.528;2023-06-26T06:51:39;26.75;;;16.50;;
73359;SDS011;63092;43.582;19.528;2023-06-26T06:54:04;18.80;;;14.30;;
73359;SDS011;63092;43.582;19.528;2023-06-26T06:56:30;23.35;;;15.00;;
73359;SDS011;63092;43.582;19.528;2023-06-26T06:58:56;20.60;;;14.93;;
73359;SDS011;63092;43.582;19.528;2023-06-26T07:01:22;20.08;;;14.88;;
73359;SDS011;63092;43.582;19.528;2023-06-26T07:03:47;21.30;;;15.40;;
73359;SDS011;63092;43.582;19.528;2023-06-26T07:06:13;21.27;;;14.95;;
73359;SDS011;63092;43.582;19.528;2023-06-26T07:08:39;22.35;;;15.05;;
73359;SDS011;63092;43.582;19.528;2023-06-26T07:11:04;25.02;;;14.93;;
73359;SDS011;63092;43.582;19.528;2023-06-26T07:13:30;19.95;;;13.90;;
73359;SDS011;63092;43.582;19.528;2023-06-26T07:15:56;18.73;;;13.43;;
73359;SDS011;63092;43.582;19.528;2023-06-26T07:18:22;23.25;;;14.77;;
73359;SDS011;63092;43.582;19.528;2023-06-26T07:20:47;20.10;;;13.40;;
73359;SDS011;63092;43.582;19.528;2023-06-26T07:23:13;21.27;;;15.18;;
73359;SDS011;63092;43.582;19.528;2023-06-26T07:25:39;20.92;;;14.65;;
73359;SDS011;63092;43.582;19.528;2023-06-26T07:28:09;23.33;;;15.10;;
73359;SDS011;63092;43.582;19.528;2023-06-26T07:30:36;20.10;;;14.07;;
73359;SDS011;63092;43.582;19.528;2023-06-26T07:33:02;22.55;;;14.93;;
73359;SDS011;63092;43.582;19.528;2023-06-26T07:35:28;19.40;;;13.43;;
73359;SDS011;63092;43.582;19.528;2023-06-26T07:37:54;21.48;;;15.07;;
73359;SDS011;63092;43.582;19.528;2023-06-26T07:40:19;21.77;;;14.35;;
73359;SDS011;63092;43.582;19.528;2023-06-26T07:42:45;20.88;;;14.25;;
73359;SDS011;63092;43.582;19.528;2023-06-26T07:45:11;18.65;;;13.18;;
73359;SDS011;63092;43.582;19.528;2023-06-26T07:47:37;17.60;;;12.88;;
73359;SDS011;63092;43.582;19.528;2023-06-26T07:50:04;16.98;;;12.63;;
73359;SDS011;63092;43.582;19.528;2023-06-26T07:52:30;16.40;;;12.48;;
73359;SDS011;63092;43.582;19.528;2023-06-26T07:54:56;16.17;;;12.05;;
73359;SDS011;63092;43.582;19.528;2023-06-26T07:57:22;19.50;;;13.38;;
73359;SDS011;63092;43.582;19.528;2023-06-26T07:59:48;17.45;;;12.70;;
73359;SDS011;63092;43.582;19.528;2023-06-26T08:02:14;17.95;;;12.45;;
73359;SDS011;63092;43.582;19.528;2023-06-26T08:04:39;18.60;;;14.13;;
73359;SDS011;63092;43.582;19.528;2023-06-26T08:07:05;14.80;;;11.10;;
73359;SDS011;63092;43.582;19.528;2023-06-26T08:09:31;16.80;;;11.70;;
73359;SDS011;63092;43.582;19.528;2023-06-26T08:11:57;16.15;;;11.00;;
73359;SDS011;63092;43.582;19.528;2023-06-26T08:14:23;14.68;;;10.60;;
73359;SDS011;63092;43.582;19.528;2023-06-26T08:16:49;16.00;;;11.27;;
73359;SDS011;63092;43.582;19.528;2023-06-26T08:19:16;15.25;;;11.13;;
73359;SDS011;63092;43.582;19.528;2023-06-26T08:21:42;15.68;;;11.50;;
73359;SDS011;63092;43.582;19.528;2023-06-26T08:24:09;13.32;;;10.35;;
73359;SDS011;63092;43.582;19.528;2023-06-26T08:26:35;12.85;;;10.23;;
73359;SDS011;63092;43.582;19.528;2023-06-26T08:29:02;15.48;;;11.05;;
73359;SDS011;63092;43.582;19.528;2023-06-26T08:31:33;16.85;;;11.50;;
73359;SDS011;63092;43.582;19.528;2023-06-26T08:34:03;16.25;;;12.20;;
73359;SDS011;63092;43.582;19.528;2023-06-26T08:36:29;18.02;;;11.30;;
73359;SDS011;63092;43.582;19.528;2023-06-26T08:38:55;14.57;;;11.32;;
73359;SDS011;63092;43.582;19.528;2023-06-26T08:41:22;14.88;;;11.38;;
73359;SDS011;63092;43.582;19.528;2023-06-26T08:43:48;15.77;;;11.13;;
73359;SDS011;63092;43.582;19.528;2023-06-26T08:46:16;16.50;;;11.10;;
73359;SDS011;63092;43.582;19.528;2023-06-26T08:48:58;15.50;;;11.00;;
73359;SDS011;63092;43.582;19.528;2023-06-26T08:51:28;13.25;;;10.10;;
73359;SDS011;63092;43.582;19.528;2023-06-26T08:53:56;12.00;;;9.35;;
73359;SDS011;63092;43.582;19.528;2023-06-26T08:56:32;12.68;;;9.55;;
73359;SDS011;63092;43.582;19.528;2023-06-26T08:59:06;12.05;;;9.27;;
73359;SDS011;63092;43.582;19.528;2023-06-26T09:01:35;10.98;;;8.70;;
73359;SDS011;63092;43.582;19.528;2023-06-26T09:04:01;13.40;;;9.98;;
73359;SDS011;63092;43.582;19.528;2023-06-26T09:06:27;11.27;;;8.43;;
73359;SDS011;63092;43.582;19.528;2023-06-26T09:08:53;11.15;;;8.40;;
73359;SDS011;63092;43.582;19.528;2023-06-26T09:11:20;9.50;;;7.05;;
73359;SDS011;63092;43.582;19.528;2023-06-26T09:13:46;8.10;;;6.60;;
73359;SDS011;63092;43.582;19.528;2023-06-26T09:16:12;10.15;;;6.60;;
73359;SDS011;63092;43.582;19.528;2023-06-26T09:18:40;10.13;;;7.45;;
73359;SDS011;63092;43.582;19.528;2023-06-26T09:21:07;8.55;;;6.40;;
73359;SDS011;63092;43.582;19.528;2023-06-26T09:23:34;10.80;;;7.10;;
73359;SDS011;63092;43.582;19.528;2023-06-26T09:26:04;9.32;;;7.75;;
73359;SDS011;63092;43.582;19.528;2023-06-26T09:28:34;9.65;;;7.82;;
73359;SDS011;63092;43.582;19.528;2023-06-26T09:31:04;8.93;;;6.75;;
73359;SDS011;63092;43.582;19.528;2023-06-26T09:33:34;8.43;;;6.68;;
73359;SDS011;63092;43.582;19.528;2023-06-26T09:36:07;9.63;;;7.05;;
73359;SDS011;63092;43.582;19.528;2023-06-26T09:38:37;10.38;;;8.00;;
73359;SDS011;63092;43.582;19.528;2023-06-26T09:41:03;9.00;;;6.93;;
73359;SDS011;63092;43.582;19.528;2023-06-26T09:43:28;14.05;;;10.82;;
73359;SDS011;63092;43.582;19.528;2023-06-26T09:45:56;13.32;;;9.90;;
73359;SDS011;63092;43.582;19.528;2023-06-26T09:48:22;8.35;;;6.55;;
73359;SDS011;63092;43.582;19.528;2023-06-26T09:50:48;8.82;;;7.00;;
73359;SDS011;63092;43.582;19.528;2023-06-26T09:53:14;10.63;;;7.55;;
73359;SDS011;63092;43.582;19.528;2023-06-26T09:55:40;10.20;;;7.68;;
73359;SDS011;63092;43.582;19.528;2023-06-26T09:58:09;9.45;;;7.13;;
73359;SDS011;63092;43.582;19.528;2023-06-26T10:00:40;8.75;;;7.30;;
73359;SDS011;63092;43.582;19.528;2023-06-26T10:05:35;10.15;;;6.85;;
73359;SDS011;63092;43.582;19.528;2023-06-26T10:08:00;8.65;;;6.60;;
73359;SDS011;63092;43.582;19.528;2023-06-26T10:10:29;7.82;;;6.05;;
73359;SDS011;63092;43.582;19.528;2023-06-26T10:12:59;10.18;;;8.10;;
73359;SDS011;63092;43.582;19.528;2023-06-26T10:15:29;10.80;;;7.18;;
73359;SDS011;63092;43.582;19.528;2023-06-26T10:17:56;7.97;;;6.53;;
73359;SDS011;63092;43.582;19.528;2023-06-26T10:20:22;8.38;;;6.88;;
73359;SDS011;63092;43.582;19.528;2023-06-26T10:22:50;9.25;;;7.38;;
73359;SDS011;63092;43.582;19.528;2023-06-26T10:25:19;8.93;;;7.00;;
73359;SDS011;63092;43.582;19.528;2023-06-26T10:27:51;9.20;;;7.20;;
73359;SDS011;63092;43.582;19.528;2023-06-26T10:30:23;9.10;;;8.05;;
73359;SDS011;63092;43.582;19.528;2023-06-26T10:32:52;8.48;;;6.82;;
73359;SDS011;63092;43.582;19.528;2023-06-26T10:35:19;9.88;;;6.80;;
73359;SDS011;63092;43.582;19.528;2023-06-26T10:37:47;9.63;;;5.93;;
73359;SDS011;63092;43.582;19.528;2023-06-26T10:40:20;8.18;;;6.15;;
73359;SDS011;63092;43.582;19.528;2023-06-26T10:42:47;9.23;;;6.97;;
73359;SDS011;63092;43.582;19.528;2023-06-26T10:47:40;7.93;;;6.63;;
73359;SDS011;63092;43.582;19.528;2023-06-26T10:55:57;8.20;;;6.90;;
73359;SDS011;63092;43.582;19.528;2023-06-26T10:58:40;9.25;;;6.57;;
73359;SDS011;63092;43.582;19.528;2023-06-26T11:04:05;8.82;;;6.85;;
73359;SDS011;63092;43.582;19.528;2023-06-26T11:06:32;7.72;;;6.30;;
73359;SDS011;63092;43.582;19.528;2023-06-26T11:14:20;8.65;;;6.50;;
73359;SDS011;63092;43.582;19.528;2023-06-26T11:16:47;9.63;;;6.85;;
73359;SDS011;63092;43.582;19.528;2023-06-26T11:19:14;7.68;;;5.95;;
73359;SDS011;63092;43.582;19.528;2023-06-26T11:21:42;9.25;;;6.38;;
73359;SDS011;63092;43.582;19.528;2023-06-26T11:24:10;9.32;;;6.60;;
73359;SDS011;63092;43.582;19.528;2023-06-26T11:26:41;13.80;;;10.18;;
73359;SDS011;63092;43.582;19.528;2023-06-26T11:29:07;8.15;;;6.95;;
73359;SDS011;63092;43.582;19.528;2023-06-26T11:31:34;8.43;;;6.97;;
73359;SDS011;63092;43.582;19.528;2023-06-26T11:34:03;8.55;;;6.72;;
73359;SDS011;63092;43.582;19.528;2023-06-26T11:36:34;10.85;;;7.32;;
73359;SDS011;63092;43.582;19.528;2023-06-26T11:39:03;11.35;;;6.70;;
73359;SDS011;63092;43.582;19.528;2023-06-26T11:41:33;7.80;;;6.72;;
73359;SDS011;63092;43.582;19.528;2023-06-26T11:44:04;9.35;;;6.97;;
73359;SDS011;63092;43.582;19.528;2023-06-26T11:46:32;7.57;;;6.30;;
73359;SDS011;63092;43.582;19.528;2023-06-26T11:48:59;7.30;;;5.65;;
73359;SDS011;63092;43.582;19.528;2023-06-26T11:51:27;7.43;;;6.28;;
73359;SDS011;63092;43.582;19.528;2023-06-26T11:53:53;8.75;;;6.38;;
73359;SDS011;63092;43.582;19.528;2023-06-26T11:56:19;7.07;;;5.40;;
73359;SDS011;63092;43.582;19.528;2023-06-26T11:58:57;8.53;;;5.73;;
73359;SDS011;63092;43.582;19.528;2023-06-26T12:01:43;7.20;;;5.85;;
73359;SDS011;63092;43.582;19.528;2023-06-26T12:04:13;7.97;;;5.88;;
73359;SDS011;63092;43.582;19.528;2023-06-26T12:06:50;8.55;;;6.30;;
73359;SDS011;63092;43.582;19.528;2023-06-26T12:09:22;8.75;;;6.60;;
73359;SDS011;63092;43.582;19.528;2023-06-26T12:11:50;8.68;;;6.80;;
73359;SDS011;63092;43.582;19.528;2023-06-26T12:14:22;8.10;;;6.03;;
73359;SDS011;63092;43.582;19.528;2023-06-26T12:16:48;7.40;;;5.93;;
73359;SDS011;63092;43.582;19.528;2023-06-26T12:19:14;8.68;;;6.00;;
73359;SDS011;63092;43.582;19.528;2023-06-26T12:24:06;9.25;;;5.80;;
73359;SDS011;63092;43.582;19.528;2023-06-26T12:26:33;7.43;;;5.25;;
73359;SDS011;63092;43.582;19.528;2023-06-26T12:29:02;7.30;;;5.82;;
73359;SDS011;63092;43.582;19.528;2023-06-26T12:31:32;7.45;;;5.40;;
73359;SDS011;63092;43.582;19.528;2023-06-26T12:33:58;9.13;;;5.60;;
73359;SDS011;63092;43.582;19.528;2023-06-26T12:36:25;6.88;;;5.53;;
73359;SDS011;63092;43.582;19.528;2023-06-26T12:38:52;7.97;;;5.72;;
73359;SDS011;63092;43.582;19.528;2023-06-26T12:41:18;6.82;;;5.25;;
73359;SDS011;63092;43.582;19.528;2023-06-26T12:43:45;8.70;;;5.60;;
73359;SDS011;63092;43.582;19.528;2023-06-26T12:46:11;7.28;;;5.93;;
73359;SDS011;63092;43.582;19.528;2023-06-26T12:48:43;6.70;;;5.38;;
73359;SDS011;63092;43.582;19.528;2023-06-26T12:51:13;6.40;;;4.90;;
73359;SDS011;63092;43.582;19.528;2023-06-26T12:53:40;28.98;;;24.52;;
73359;SDS011;63092;43.582;19.528;2023-06-26T12:56:10;6.70;;;5.50;;
73359;SDS011;63092;43.582;19.528;2023-06-26T12:58:36;19.48;;;15.40;;
73359;SDS011;63092;43.582;19.528;2023-06-26T13:01:03;9.48;;;6.78;;
73359;SDS011;63092;43.582;19.528;2023-06-26T13:03:30;6.82;;;5.88;;
73359;SDS011;63092;43.582;19.528;2023-06-26T13:05:56;8.57;;;5.65;;
73359;SDS011;63092;43.582;19.528;2023-06-26T13:08:22;8.40;;;5.38;;
73359;SDS011;63092;43.582;19.528;2023-06-26T13:10:48;7.72;;;5.63;;
73359;SDS011;63092;43.582;19.528;2023-06-26T13:13:14;9.30;;;5.50;;
73359;SDS011;63092;43.582;19.528;2023-06-26T13:15:40;6.97;;;5.63;;
73359;SDS011;63092;43.582;19.528;2023-06-26T13:18:05;10.68;;;5.40;;
73359;SDS011;63092;43.582;19.528;2023-06-26T13:20:31;8.30;;;5.28;;
73359;SDS011;63092;43.582;19.528;2023-06-26T13:22:57;7.57;;;5.18;;
73359;SDS011;63092;43.582;19.528;2023-06-26T13:25:22;6.30;;;5.00;;
73359;SDS011;63092;43.582;19.528;2023-06-26T13:27:48;7.70;;;6.18;;
73359;SDS011;63092;43.582;19.528;2023-06-26T13:30:17;7.93;;;6.22;;
73359;SDS011;63092;43.582;19.528;2023-06-26T13:32:42;11.30;;;8.65;;
73359;SDS011;63092;43.582;19.528;2023-06-26T13:35:09;8.18;;;6.45;;
73359;SDS011;63092;43.582;19.528;2023-06-26T13:37:35;6.47;;;5.53;;
73359;SDS011;63092;43.582;19.528;2023-06-26T13:40:02;6.20;;;4.93;;
73359;SDS011;63092;43.582;19.528;2023-06-26T13:42:28;8.20;;;5.43;;
73359;SDS011;63092;43.582;19.528;2023-06-26T13:44:54;7.50;;;5.35;;
73359;SDS011;63092;43.582;19.528;2023-06-26T13:47:23;8.05;;;6.30;;
73359;SDS011;63092;43.582;19.528;2023-06-26T13:49:49;8.68;;;5.32;;
73359;SDS011;63092;43.582;19.528;2023-06-26T13:52:14;9.57;;;7.95;;
73359;SDS011;63092;43.582;19.528;2023-06-26T13:54:40;8.60;;;5.85;;
73359;SDS011;63092;43.582;19.528;2023-06-26T13:57:07;7.72;;;5.55;;
73359;SDS011;63092;43.582;19.528;2023-06-26T13:59:33;7.45;;;5.28;;
73359;SDS011;63092;43.582;19.528;2023-06-26T14:02:04;7.30;;;5.20;;
73359;SDS011;63092;43.582;19.528;2023-06-26T14:04:31;7.07;;;4.97;;
73359;SDS011;63092;43.582;19.528;2023-06-26T14:06:57;7.18;;;5.47;;
73359;SDS011;63092;43.582;19.528;2023-06-26T14:09:24;5.68;;;4.60;;
73359;SDS011;63092;43.582;19.528;2023-06-26T14:11:49;7.07;;;5.25;;
73359;SDS011;63092;43.582;19.528;2023-06-26T14:14:15;7.63;;;4.75;;
73359;SDS011;63092;43.582;19.528;2023-06-26T14:16:41;6.13;;;4.93;;
73359;SDS011;63092;43.582;19.528;2023-06-26T14:19:07;6.80;;;4.75;;
73359;SDS011;63092;43.582;19.528;2023-06-26T14:21:40;6.05;;;4.50;;
73359;SDS011;63092;43.582;19.528;2023-06-26T14:24:06;6.57;;;4.65;;
73359;SDS011;63092;43.582;19.528;2023-06-26T14:26:32;7.07;;;5.00;;
73359;SDS011;63092;43.582;19.528;2023-06-26T14:28:59;7.57;;;4.53;;
73359;SDS011;63092;43.582;19.528;2023-06-26T14:31:25;5.97;;;4.68;;
73359;SDS011;63092;43.582;19.528;2023-06-26T14:33:51;7.57;;;5.63;;
73359;SDS011;63092;43.582;19.528;2023-06-26T14:36:17;7.65;;;5.50;;
73359;SDS011;63092;43.582;19.528;2023-06-26T14:38:44;9.15;;;5.90;;
73359;SDS011;63092;43.582;19.528;2023-06-26T14:41:10;6.45;;;4.97;;
73359;SDS011;63092;43.582;19.528;2023-06-26T14:43:36;6.03;;;4.63;;
73359;SDS011;63092;43.582;19.528;2023-06-26T14:46:01;7.30;;;4.95;;
73359;SDS011;63092;43.582;19.528;2023-06-26T14:48:27;6.10;;;4.80;;
73359;SDS011;63092;43.582;19.528;2023-06-26T14:50:53;7.43;;;5.10;;